Time;durP1;ratioP1;P1;durP2;ratioP2;P2;SDS_P1;SDS_P2;PMS_P1;PMS_P2;Temp;Humidity;BMP_temperature;BMP_pressure;BME280_temperature;BME280_humidity;BME280_pressure;Samples;Min_cycle;Max_cycle;Signal;HPM_P1;HPM_P2
2022/07/17 00:02:09;;;;;;;3.67;2.00;;;;;;;12.00;77.99;102801.59;5119037;28;20078;-71
2022/07/17 00:04:36;;;;;;;7.38;1.83;;;;;;;11.98;78.18;102809.25;5119929;28;20044;-70
2022/07/17 00:07:03;;;;;;;3.08;1.67;;;;;;;11.93;79.25;102799.03;5119953;28;20044;-70
2022/07/17 00:09:30;;;;;;;4.20;1.65;;;;;;;11.95;78.56;102797.47;5119524;28;20052;-71
2022/07/17 00:11:56;;;;;;;2.85;1.83;;;;;;;11.90;79.08;102802.47;5119899;28;20090;-70
2022/07/17 00:14:23;;;;;;;3.88;1.73;;;;;;;11.89;78.67;102806.31;5119324;28;20047;-71
2022/07/17 00:16:51;;;;;;;3.00;1.88;;;;;;;11.87;79.04;102797.94;5119045;28;20047;-70
2022/07/17 00:19:18;;;;;;;1.63;1.52;;;;;;;11.82;79.00;102801.78;5119394;28;20056;-70
2022/07/17 00:21:44;;;;;;;2.80;1.75;;;;;;;11.78;78.64;102803.75;5119496;28;20052;-70
2022/07/17 00:24:12;;;;;;;5.53;2.00;;;;;;;11.74;78.56;102802.22;5119393;28;20051;-70
2022/07/17 00:26:38;;;;;;;2.75;2.13;;;;;;;11.68;78.83;102802.66;5119173;28;20509;-70
2022/07/17 00:29:05;;;;;;;6.63;2.05;;;;;;;11.59;78.42;102804.31;5099599;28;20059;-71
2022/07/17 00:31:31;;;;;;;1.83;1.73;;;;;;;11.54;78.82;102808.16;5119338;28;20052;-71
2022/07/17 00:33:58;;;;;;;4.00;2.00;;;;;;;11.47;78.88;102802.88;5119394;28;20131;-71
2022/07/17 00:36:25;;;;;;;3.17;1.90;;;;;;;11.40;79.29;102805.63;5119036;28;20052;-71
2022/07/17 00:38:52;;;;;;;4.30;1.88;;;;;;;11.33;79.42;102808.34;5119141;28;20059;-71
2022/07/17 00:41:18;;;;;;;7.90;2.13;;;;;;;11.26;80.47;102808.38;5100595;28;20079;-70
2022/07/17 00:43:45;;;;;;;3.47;2.20;;;;;;;11.25;80.19;102802.31;5118866;28;20409;-70
2022/07/17 00:46:12;;;;;;;2.60;2.40;;;;;;;11.26;79.82;102803.81;5118831;28;20402;-70
2022/07/17 00:48:39;;;;;;;2.13;1.92;;;;;;;11.24;79.53;102800.78;5119062;28;20048;-70
2022/07/17 00:51:07;;;;;;;2.47;2.00;;;;;;;11.21;79.49;102792.81;5118981;28;20048;-70
2022/07/17 00:53:35;;;;;;;3.83;2.17;;;;;;;11.18;80.03;102796.28;5119174;28;20048;-71
2022/07/17 00:56:04;;;;;;;3.83;2.17;;;;;;;11.14;79.92;102803.56;5118848;28;20044;-71
2022/07/17 00:58:35;;;;;;;4.03;1.85;;;;;;;11.13;79.44;102796.72;5118587;28;20063;-70
2022/07/17 01:01:06;;;;;;;3.43;1.93;;;;;;;11.15;79.05;102794.41;5118713;28;20060;-71
2022/07/17 01:03:33;;;;;;;2.33;1.77;;;;;;;11.11;79.40;102797.09;5118970;28;20337;-71
2022/07/17 01:05:59;;;;;;;2.03;1.83;;;;;;;11.08;80.19;102797.13;5118986;28;20048;-70
2022/07/17 01:08:26;;;;;;;2.15;1.90;;;;;;;11.03;79.55;102799.06;5118844;28;20055;-70
2022/07/17 01:10:53;;;;;;;3.35;2.08;;;;;;;11.00;79.82;102796.41;5118279;28;20044;-70
2022/07/17 01:13:19;;;;;;;5.60;1.80;;;;;;;10.97;80.41;102799.88;5118744;28;20048;-71
2022/07/17 01:15:46;;;;;;;2.13;1.90;;;;;;;10.96;79.94;102804.44;5118094;28;20614;-71
2022/07/17 01:18:14;;;;;;;3.33;1.80;;;;;;;10.92;80.72;102809.03;5116862;28;20056;-71
2022/07/17 01:20:43;;;;;;;3.20;1.92;;;;;;;10.91;79.89;102801.44;5118465;28;20055;-71
2022/07/17 01:23:10;;;;;;;2.05;1.90;;;;;;;10.86;79.97;102804.50;5118565;28;20052;-71
2022/07/17 01:25:37;;;;;;;2.35;2.03;;;;;;;10.83;79.95;102803.38;5118217;28;20047;-70
2022/07/17 01:28:04;;;;;;;2.97;1.92;;;;;;;10.84;79.83;102799.56;5118364;28;20064;-70
2022/07/17 01:30:31;;;;;;;2.40;1.95;;;;;;;10.83;80.31;102807.94;5118248;28;20052;-70
2022/07/17 01:32:58;;;;;;;3.40;2.17;;;;;;;10.82;79.86;102806.44;5118347;28;20040;-70
2022/07/17 01:35:25;;;;;;;2.15;1.95;;;;;;;10.78;80.27;102808.38;5118249;28;20067;-71
2022/07/17 01:37:52;;;;;;;2.78;2.10;;;;;;;10.73;80.42;102804.22;5117960;28;20048;-71
2022/07/17 01:40:18;;;;;;;3.05;2.10;;;;;;;10.66;80.92;102801.59;5117087;28;20055;-71
2022/07/17 01:42:48;;;;;;;1.92;1.83;;;;;;;10.64;81.12;102803.91;5099702;28;20051;-71
2022/07/17 01:45:16;;;;;;;3.60;1.98;;;;;;;10.63;81.20;102797.81;5118047;28;20048;-70
2022/07/17 01:47:43;;;;;;;5.13;1.77;;;;;;;10.62;80.63;102798.19;5118056;28;20052;-71
2022/07/17 01:50:11;;;;;;;1.90;1.80;;;;;;;10.64;80.86;102795.91;5118024;28;20044;-71
2022/07/17 01:52:40;;;;;;;2.60;2.35;;;;;;;10.62;81.67;102787.53;5117604;28;20051;-71
2022/07/17 01:55:09;;;;;;;2.03;1.90;;;;;;;10.59;80.61;102783.00;5118096;28;20044;-71
2022/07/17 01:57:36;;;;;;;2.22;1.70;;;;;;;10.59;81.13;102783.00;5099760;28;20651;-70
2022/07/17 02:00:05;;;;;;;2.92;2.00;;;;;;;10.57;80.94;102779.97;5117622;28;20523;-71
2022/07/17 02:02:33;;;;;;;2.42;2.05;;;;;;;10.54;81.13;102784.16;5116792;28;20552;-70
2022/07/17 02:04:59;;;;;;;2.67;2.17;;;;;;;10.51;81.25;102789.50;5117021;28;20055;-72
2022/07/17 02:07:26;;;;;;;4.35;1.80;;;;;;;10.45;81.37;102793.72;5117634;28;20493;-71
2022/07/17 02:09:53;;;;;;;2.00;1.90;;;;;;;10.36;81.27;102794.16;5099802;28;20098;-71
2022/07/17 02:12:20;;;;;;;3.95;1.95;;;;;;;10.32;81.22;102788.84;5117545;28;20039;-71
2022/07/17 02:14:46;;;;;;;3.17;2.08;;;;;;;10.29;81.56;102797.63;5117581;28;20063;-71
2022/07/17 02:17:13;;;;;;;2.20;1.88;;;;;;;10.20;81.43;102788.53;5117307;28;20047;-71
2022/07/17 02:19:40;;;;;;;2.33;2.10;;;;;;;10.12;82.42;102789.66;5117028;28;20052;-71
2022/07/17 02:22:06;;;;;;;4.07;1.70;;;;;;;10.10;81.74;102790.03;5117866;28;20044;-71
2022/07/17 02:24:32;;;;;;;3.40;2.20;;;;;;;10.06;81.91;102791.19;5099667;28;20482;-71
2022/07/17 02:26:59;;;;;;;2.10;2.00;;;;;;;10.04;81.44;102791.59;5099446;28;20048;-71
2022/07/17 02:29:25;;;;;;;2.67;2.10;;;;;;;10.03;81.67;102792.72;5117451;28;20048;-71
2022/07/17 02:31:52;;;;;;;4.72;2.03;;;;;;;10.04;81.93;102791.59;5117571;28;20070;-71
2022/07/17 02:34:18;;;;;;;2.35;1.90;;;;;;;10.01;82.44;102798.44;5117182;28;20052;-71
2022/07/17 02:36:45;;;;;;;2.38;2.08;;;;;;;9.96;82.91;102798.09;5117410;28;20055;-71
2022/07/17 02:39:11;;;;;;;2.42;2.15;;;;;;;9.92;83.10;102803.44;5117313;28;20048;-71
2022/07/17 02:41:38;;;;;;;4.15;2.50;;;;;;;9.90;82.87;102800.38;5117198;28;20051;-71
2022/07/17 02:44:04;;;;;;;3.13;1.95;;;;;;;9.91;82.70;102801.16;5117243;28;20059;-72
2022/07/17 02:46:31;;;;;;;8.95;1.95;;;;;;;9.86;83.50;102807.63;5117394;28;20059;-71
2022/07/17 02:48:57;;;;;;;2.20;2.00;;;;;;;9.82;83.58;102811.44;5116987;28;20048;-71
2022/07/17 02:51:24;;;;;;;2.45;2.00;;;;;;;9.81;83.32;102812.56;5118839;27;20474;-71
2022/07/17 02:53:51;;;;;;;2.67;2.25;;;;;;;9.81;82.56;102816.00;5120228;28;20048;-71
2022/07/17 02:56:18;;;;;;;2.83;1.92;;;;;;;9.78;82.81;102811.44;5120573;28;20510;-70
2022/07/17 02:58:44;;;;;;;1.95;1.85;;;;;;;9.79;82.45;102812.19;5120582;28;20056;-71
2022/07/17 03:01:10;;;;;;;2.53;1.65;;;;;;;9.76;82.67;102803.06;5120450;28;20056;-71
2022/07/17 03:03:37;;;;;;;2.40;1.88;;;;;;;9.77;82.77;102801.94;5119709;28;20140;-71
2022/07/17 03:06:04;;;;;;;1.70;1.60;;;;;;;9.78;82.96;102798.13;5120406;28;20117;-71
2022/07/17 03:08:30;;;;;;;2.40;2.20;;;;;;;9.79;83.09;102793.56;5120323;28;20048;-71
2022/07/17 03:10:57;;;;;;;3.15;2.08;;;;;;;9.78;82.66;102784.84;5120485;28;20048;-71
2022/07/17 03:13:23;;;;;;;2.38;2.00;;;;;;;9.78;83.40;102784.84;5120553;28;20113;-71
2022/07/17 03:15:50;;;;;;;2.22;2.03;;;;;;;9.76;83.23;102783.69;5120359;28;20051;-72
2022/07/17 03:18:17;;;;;;;2.30;1.98;;;;;;;9.69;83.59;102789.78;5119761;28;20405;-71
2022/07/17 03:20:43;;;;;;;3.75;1.90;;;;;;;9.67;83.06;102789.41;5120300;28;20504;-71
2022/07/17 03:23:10;;;;;;;7.30;2.22;;;;;;;9.63;83.40;102789.41;5120367;28;20531;-71
2022/07/17 03:25:37;;;;;;;5.03;2.17;;;;;;;9.59;83.58;102794.00;5120259;28;20055;-71
2022/07/17 03:28:03;;;;;;;1.88;1.77;;;;;;;9.51;82.95;102797.81;5120267;28;20101;-71
2022/07/17 03:30:30;;;;;;;3.40;2.03;;;;;;;9.50;82.79;102801.63;5119795;28;20047;-72
2022/07/17 03:32:56;;;;;;;3.90;2.30;;;;;;;9.46;82.94;102800.84;5120193;28;20568;-71
2022/07/17 03:35:23;;;;;;;1.88;1.75;;;;;;;9.48;83.20;102811.09;5120054;28;20505;-71
2022/07/17 03:37:49;;;;;;;2.08;1.85;;;;;;;9.46;83.49;102816.03;5120116;28;20048;-71
2022/07/17 03:40:16;;;;;;;3.10;2.13;;;;;;;9.46;83.36;102811.47;5119772;28;20044;-71
2022/07/17 03:42:43;;;;;;;2.33;1.88;;;;;;;9.50;82.87;102806.16;5119860;28;20474;-71
2022/07/17 03:45:09;;;;;;;3.08;2.00;;;;;;;9.54;83.63;102810.34;5119068;28;20056;-71
2022/07/17 03:47:36;;;;;;;6.60;2.47;;;;;;;9.53;83.78;102814.13;5119821;28;20048;-70
2022/07/17 03:50:03;;;;;;;2.10;2.00;;;;;;;9.55;83.79;102813.75;5119968;28;20082;-70
2022/07/17 03:52:30;;;;;;;3.83;2.00;;;;;;;9.55;83.26;102811.88;5101794;28;20074;-71
2022/07/17 03:54:56;;;;;;;2.22;2.13;;;;;;;9.59;84.02;102803.88;5119784;28;20052;-71
2022/07/17 03:57:23;;;;;;;5.72;2.40;;;;;;;9.62;84.14;102819.03;5119614;28;20052;-70
2022/07/17 03:59:49;;;;;;;2.53;2.33;;;;;;;9.61;83.78;102814.88;5119438;28;20048;-71
2022/07/17 04:02:16;;;;;;;2.38;2.22;;;;;;;9.60;84.25;102821.31;5091377;28;20066;-71
2022/07/17 04:04:42;;;;;;;2.55;1.88;;;;;;;9.60;84.27;102832.72;5078410;28;20049;-70
2022/07/17 04:07:26;;;;;;;2.88;2.38;;;;;;;9.59;84.20;102833.13;5080325;28;20439;-70
2022/07/17 04:09:54;;;;;;;7.85;2.10;;;;;;;9.62;84.03;102840.31;5099156;28;20050;-70
2022/07/17 04:12:21;;;;;;;3.67;1.92;;;;;;;9.66;83.67;102835.75;5098553;28;20040;-70
2022/07/17 04:14:49;;;;;;;4.32;2.53;;;;;;;9.70;83.46;102833.84;5098949;28;20399;-70
2022/07/17 04:17:16;;;;;;;2.00;1.90;;;;;;;9.74;83.47;102823.97;5098813;28;20052;-70
2022/07/17 04:19:42;;;;;;;2.88;1.75;;;;;;;9.78;83.44;102838.03;5099076;28;20337;-70
2022/07/17 04:22:09;;;;;;;2.05;1.95;;;;;;;9.81;83.43;102839.16;5099023;28;20430;-70
2022/07/17 04:24:35;;;;;;;5.30;2.03;;;;;;;9.79;83.39;102839.56;5098963;28;20060;-70
2022/07/17 04:27:02;;;;;;;2.65;2.45;;;;;;;9.81;83.80;102842.59;5098370;28;20053;-70
2022/07/17 04:29:28;;;;;;;3.78;2.60;;;;;;;9.78;84.37;102843.34;5098871;28;20490;-70
2022/07/17 04:31:55;;;;;;;3.50;2.30;;;;;;;9.81;83.85;102849.81;5098524;28;20060;-70
2022/07/17 04:34:21;;;;;;;4.88;2.15;;;;;;;9.84;84.80;102836.50;5098488;28;20056;-70
2022/07/17 04:36:48;;;;;;;4.68;2.10;;;;;;;9.87;84.65;102835.75;5098767;28;20513;-71
2022/07/17 04:39:14;;;;;;;2.58;1.90;;;;;;;9.90;85.03;102831.56;5098544;28;20051;-70
2022/07/17 04:41:41;;;;;;;3.05;2.10;;;;;;;9.95;84.62;102831.94;5097951;28;20056;-71
2022/07/17 04:44:07;;;;;;;2.45;1.85;;;;;;;10.03;83.87;102832.63;5098849;28;20041;-70
2022/07/17 04:46:34;;;;;;;2.28;1.92;;;;;;;10.10;83.86;102827.31;5098623;28;20048;-70
2022/07/17 04:49:00;;;;;;;1.90;1.80;;;;;;;10.20;83.38;102829.22;5098542;28;20459;-70
2022/07/17 04:51:27;;;;;;;1.85;1.75;;;;;;;10.17;82.20;102829.94;5098463;28;20490;-71
2022/07/17 04:53:54;;;;;;;2.67;1.73;;;;;;;10.16;82.38;102823.09;5098249;28;20063;-71
2022/07/17 04:56:20;;;;;;;1.90;1.80;;;;;;;10.31;82.27;102835.25;5098016;28;20051;-70
2022/07/17 04:58:47;;;;;;;1.90;1.80;;;;;;;10.74;81.27;102831.63;5098521;28;20056;-70
2022/07/17 05:01:13;;;;;;;3.92;2.20;;;;;;;11.52;78.62;102818.47;5102685;28;20055;-70
2022/07/17 05:03:40;;;;;;;3.90;2.17;;;;;;;11.84;77.35;102815.50;5118897;28;20044;-71
2022/07/17 05:06:06;;;;;;;2.15;2.05;;;;;;;12.76;74.61;102810.91;5118963;28;20482;-70
2022/07/17 05:08:36;;;;;;;2.42;2.10;;;;;;;15.11;66.76;102819.78;5118696;28;20044;-70
2022/07/17 05:11:02;;;;;;;4.90;2.35;;;;;;;16.75;59.54;102821.41;5118482;28;21915;-71
2022/07/17 05:13:29;;;;;;;3.10;2.50;;;;;;;18.13;55.05;102822.06;5118418;27;20044;-71
2022/07/17 05:15:56;;;;;;;3.22;2.28;;;;;;;19.22;52.25;102813.50;5118510;28;20075;-70
2022/07/17 05:18:22;;;;;;;5.57;2.50;;;;;;;19.94;49.26;102817.38;5118465;28;20123;-70
2022/07/17 05:20:49;;;;;;;2.20;2.00;;;;;;;20.47;48.07;102822.28;5118423;28;20486;-71
2022/07/17 05:23:15;;;;;;;3.58;2.60;;;;;;;21.06;46.58;102825.22;5117984;28;20044;-71
2022/07/17 05:25:43;;;;;;;7.28;3.30;;;;;;;21.46;45.78;102816.66;5118698;28;20172;-71
2022/07/17 05:28:10;;;;;;;8.63;3.20;;;;;;;21.72;44.70;102824.22;5118148;28;20422;-71
2022/07/17 05:30:36;;;;;;;7.45;3.20;;;;;;;22.12;43.81;102831.78;5118310;28;20444;-71
2022/07/17 05:33:03;;;;;;;6.10;2.63;;;;;;;22.33;43.81;102832.59;5118330;28;20048;-71
2022/07/17 05:35:31;;;;;;;6.95;2.75;;;;;;;22.76;42.65;102834.44;5118076;28;20493;-71
2022/07/17 05:37:57;;;;;;;7.53;2.70;;;;;;;23.08;41.36;102842.72;5117657;28;20044;-71
2022/07/17 05:40:25;;;;;;;5.85;3.05;;;;;;;22.34;42.96;102826.72;5100412;28;20043;-71
2022/07/17 05:42:52;;;;;;;10.07;3.28;;;;;;;21.13;45.57;102834.97;5118045;28;20048;-71
2022/07/17 05:45:19;;;;;;;9.27;2.90;;;;;;;20.45;48.08;102818.53;5118187;28;20050;-71
2022/07/17 05:47:45;;;;;;;6.05;3.35;;;;;;;20.83;47.16;102826.72;5118024;28;20078;-71
2022/07/17 05:50:12;;;;;;;12.38;3.25;;;;;;;19.97;48.51;102826.53;5118052;28;20044;-72
2022/07/17 05:52:38;;;;;;;5.18;3.22;;;;;;;19.41;50.67;102816.22;5117573;28;20054;-72
2022/07/17 05:55:05;;;;;;;6.05;2.88;;;;;;;20.04;50.58;102825.44;5117933;28;20055;-71
2022/07/17 05:57:33;;;;;;;7.72;2.40;;;;;;;20.62;48.94;102831.22;5117816;28;20127;-70
2022/07/17 05:59:59;;;;;;;5.97;2.28;;;;;;;21.14;48.15;102844.59;5118193;28;20044;-71
2022/07/17 06:02:26;;;;;;;5.82;3.08;;;;;;;21.43;48.10;102838.50;5117428;28;20067;-73
2022/07/17 06:04:53;;;;;;;3.97;2.45;;;;;;;21.29;47.57;102837.25;5117746;28;20044;-77
2022/07/17 06:07:19;;;;;;;2.60;2.28;;;;;;;21.44;48.69;102840.00;5117680;28;20048;-77
2022/07/17 06:09:46;;;;;;;5.82;2.40;;;;;;;21.42;47.48;102839.72;5082340;28;20397;-74
2022/07/17 06:12:12;;;;;;;9.52;2.40;;;;;;;21.47;47.33;102845.25;5117783;28;20044;-77
2022/07/17 06:14:39;;;;;;;3.38;2.58;;;;;;;21.56;47.06;102839.75;5117893;28;20082;-78
2022/07/17 06:17:06;;;;;;;6.55;2.40;;;;;;;21.38;47.37;102849.97;5117625;28;20048;-77
2022/07/17 06:19:32;;;;;;;6.03;2.35;;;;;;;21.11;48.92;102851.69;5117372;28;20056;-75
2022/07/17 06:21:59;;;;;;;6.40;2.50;;;;;;;21.16;48.35;102856.47;5078160;28;20441;-75
2022/07/17 06:24:25;;;;;;;6.28;2.63;;;;;;;21.13;47.80;102860.09;5099895;28;20474;-77
2022/07/17 06:26:52;;;;;;;6.60;2.38;;;;;;;20.82;48.15;102868.53;5117032;28;20098;-80
2022/07/17 06:29:19;;;;;;;15.57;2.83;;;;;;;20.24;50.02;102879.75;5099467;28;20048;-80
2022/07/17 06:31:45;;;;;;;5.28;2.25;;;;;;;20.43;49.29;102880.47;5099860;28;20044;-80
2022/07/17 06:34:14;;;;;;;8.27;2.30;;;;;;;20.31;49.97;102880.19;5099094;28;20040;-80
2022/07/17 06:36:46;;;;;;;5.88;2.25;;;;;;;20.38;51.43;102875.69;5099084;28;20059;-80
2022/07/17 06:39:13;;;;;;;3.08;2.20;;;;;;;20.12;49.80;102876.03;5099297;28;20051;-77
2022/07/17 06:41:39;;;;;;;8.82;2.35;;;;;;;20.22;50.71;102872.09;5117455;28;20045;-78
2022/07/17 06:44:07;;;;;;;5.00;2.35;;;;;;;20.36;48.86;102870.72;5095407;28;20138;-79
2022/07/17 06:46:43;;;;;;;7.70;2.53;;;;;;;20.36;49.20;102875.38;5117224;28;20466;-82
2022/07/17 06:49:10;;;;;;;8.45;2.60;;;;;;;20.42;48.42;102881.66;5113038;28;20040;-78
2022/07/17 06:51:37;;;;;;;4.72;2.45;;;;;;;20.53;49.33;102890.03;5098861;28;20044;-80
2022/07/17 06:54:03;;;;;;;5.47;2.30;;;;;;;20.66;48.05;102889.84;5099247;28;20044;-77
2022/07/17 06:56:30;;;;;;;4.80;2.20;;;;;;;20.59;49.20;102901.75;5114259;28;20063;-74
2022/07/17 06:58:56;;;;;;;2.85;2.15;;;;;;;20.70;48.93;102896.59;5098599;28;20052;-74
2022/07/17 07:01:23;;;;;;;9.35;2.33;;;;;;;20.74;47.89;102891.75;5116244;28;20060;-75
2022/07/17 07:03:49;;;;;;;7.22;2.20;;;;;;;20.86;47.28;102882.66;5116872;28;20379;-74
2022/07/17 07:06:16;;;;;;;3.72;2.30;;;;;;;20.82;47.40;102884.78;5117178;28;20059;-74
2022/07/17 07:08:42;;;;;;;10.82;2.30;;;;;;;20.80;47.95;102889.16;5116719;28;20044;-73
2022/07/17 07:11:09;;;;;;;4.78;2.40;;;;;;;20.67;48.44;102899.47;5116649;28;20059;-74
2022/07/17 07:13:36;;;;;;;9.52;2.20;;;;;;;20.64;48.44;102901.13;5116679;28;20052;-77
2022/07/17 07:16:03;;;;;;;7.32;2.53;;;;;;;20.95;47.63;102898.09;5116446;28;20051;-75
2022/07/17 07:18:30;;;;;;;4.78;2.05;;;;;;;21.08;47.45;102895.94;5116548;28;20129;-78
2022/07/17 07:20:56;;;;;;;5.45;2.15;;;;;;;21.19;46.71;102893.44;5116807;28;20049;-75
2022/07/17 07:23:22;;;;;;;3.83;1.73;;;;;;;21.23;47.33;102885.16;5116725;28;20059;-75
2022/07/17 07:25:49;;;;;;;7.30;2.00;;;;;;;21.41;46.71;102887.00;5117101;28;20457;-76
2022/07/17 07:28:16;;;;;;;4.72;1.75;;;;;;;21.26;45.93;102887.69;5116647;28;20055;-75
2022/07/17 07:30:42;;;;;;;2.40;1.70;;;;;;;21.37;47.00;102891.84;5116265;28;20402;-75
2022/07/17 07:33:09;;;;;;;6.93;1.60;;;;;;;21.24;46.46;102887.41;5116802;28;20466;-76
2022/07/17 07:35:36;;;;;;;5.78;1.50;;;;;;;21.46;46.07;102889.81;5116527;28;20405;-74
2022/07/17 07:38:03;;;;;;;4.70;1.45;;;;;;;21.58;46.64;102891.53;5117591;27;20056;-76
2022/07/17 07:40:30;;;;;;;1.95;1.52;;;;;;;21.64;45.94;102886.94;5084937;28;20059;-77
2022/07/17 07:42:57;;;;;;;2.22;1.40;;;;;;;21.50;45.40;102886.91;5119939;28;20474;-80
2022/07/17 07:45:24;;;;;;;2.15;1.20;;;;;;;21.38;45.20;102887.91;5084810;28;20466;-76
2022/07/17 07:47:51;;;;;;;4.60;1.27;;;;;;;21.52;46.50;102879.81;5118472;28;20446;-79
2022/07/17 07:50:21;;;;;;;5.63;1.50;;;;;;;21.57;46.12;102883.84;5099598;28;20044;-76
2022/07/17 07:52:48;;;;;;;3.15;1.30;;;;;;;21.90;45.36;102898.00;5100894;28;20052;-77
2022/07/17 07:55:15;;;;;;;3.03;1.30;;;;;;;22.29;44.99;102890.53;5119282;28;20393;-77
2022/07/17 07:57:48;;;;;;;5.03;1.38;;;;;;;22.10;45.51;102902.03;5118853;28;20075;-77
2022/07/17 08:00:15;;;;;;;2.85;1.50;;;;;;;22.38;44.16;102892.38;5101237;28;20052;-77
2022/07/17 08:02:42;;;;;;;3.00;1.20;;;;;;;22.36;44.60;102899.50;5118406;28;20139;-74
2022/07/17 08:05:09;;;;;;;4.57;1.38;;;;;;;22.53;43.72;102889.63;5119244;28;20040;-77
2022/07/17 08:07:36;;;;;;;2.90;1.50;;;;;;;22.45;44.42;102888.50;5119117;28;20052;-77
2022/07/17 08:10:07;;;;;;;7.75;1.50;;;;;;;22.62;44.51;102894.94;5100660;28;20083;-78
2022/07/17 08:12:33;;;;;;;3.22;1.40;;;;;;;23.04;44.16;102891.81;5092928;28;20627;-75
2022/07/17 08:15:13;;;;;;;5.10;1.58;;;;;;;23.21;42.50;102894.72;5115789;28;20127;-76
2022/07/17 08:17:40;;;;;;;8.43;1.50;;;;;;;23.08;42.62;102889.66;5093978;28;20059;-78
2022/07/17 08:20:08;;;;;;;3.92;1.50;;;;;;;23.17;42.44;102888.78;5100831;28;20040;-78
2022/07/17 08:22:42;;;;;;;4.50;1.52;;;;;;;23.41;42.20;102888.53;5096063;28;20062;-76
2022/07/17 08:25:29;;;;;;;4.85;1.77;;;;;;;23.48;40.96;102891.56;5117395;28;20576;-77
2022/07/17 08:27:55;;;;;;;4.32;1.70;;;;;;;23.64;41.64;102884.06;5112512;28;20447;-76
2022/07/17 08:30:23;;;;;;;8.60;1.77;;;;;;;23.81;42.41;102879.56;5098301;28;20446;-76
2022/07/17 08:32:50;;;;;;;2.15;1.35;;;;;;;23.82;41.26;102886.47;5118440;28;20048;-77
2022/07/17 08:35:16;;;;;;;5.28;1.27;;;;;;;23.44;42.16;102884.84;5096611;28;20048;-75
2022/07/17 08:37:44;;;;;;;3.40;1.58;;;;;;;23.38;43.31;102881.31;5114305;28;20044;-76
2022/07/17 08:40:25;;;;;;;4.70;1.35;;;;;;;23.46;42.79;102885.88;5117851;28;20059;-74
2022/07/17 08:42:54;;;;;;;3.10;1.20;;;;;;;23.74;41.38;102880.72;5117290;28;20083;-75
2022/07/17 08:45:21;;;;;;;2.80;1.17;;;;;;;23.94;40.87;102897.00;5118423;28;20105;-76
2022/07/17 08:47:53;;;;;;;2.17;1.33;;;;;;;24.02;41.10;102891.09;5118524;28;20060;-74
2022/07/17 08:50:34;;;;;;;4.03;1.42;;;;;;;24.07;39.26;102893.09;5118429;27;20052;-75
2022/07/17 08:53:04;;;;;;;;;;;;;;;24.37;41.03;102897.09;5119507;28;20044;-74
2022/07/17 08:55:31;;;;;;;7.13;1.48;;;;;;;24.42;39.52;102893.63;5119115;28;19944;-76
2022/07/17 08:57:58;;;;;;;2.08;1.20;;;;;;;24.40;39.03;102887.19;5118989;28;20454;-77
2022/07/17 09:00:27;;;;;;;4.05;1.20;;;;;;;24.29;38.94;102878.97;5118520;28;20051;-75
2022/07/17 09:03:02;;;;;;;1.42;1.30;;;;;;;24.49;38.94;102881.56;5117157;28;20088;-76
2022/07/17 09:05:31;;;;;;;3.97;1.25;;;;;;;24.45;38.93;102875.59;5076755;28;20056;-77
2022/07/17 09:07:59;;;;;;;4.72;1.33;;;;;;;24.71;38.93;102872.78;5118106;28;20450;-77
2022/07/17 09:10:38;;;;;;;2.33;1.45;;;;;;;24.67;37.95;102880.44;5118070;28;20048;-73
2022/07/17 09:13:20;;;;;;;2.33;1.60;;;;;;;24.74;37.99;102878.00;5114723;28;20470;-74
2022/07/17 09:15:50;;;;;;;3.08;1.38;;;;;;;24.88;38.30;102873.56;5117649;28;20052;-74
2022/07/17 09:18:18;;;;;;;2.17;1.40;;;;;;;25.07;36.40;102879.38;5117681;28;20123;-74
2022/07/17 09:20:57;;;;;;;4.43;1.48;;;;;;;24.83;37.07;102877.75;5118002;28;20062;-73
2022/07/17 09:23:26;;;;;;;2.22;1.40;;;;;;;24.54;38.99;102875.41;5117278;28;20074;-74
2022/07/17 09:25:55;;;;;;;1.92;1.40;;;;;;;24.93;38.80;102881.03;5117790;28;20059;-73
2022/07/17 09:28:22;;;;;;;2.85;1.40;;;;;;;24.96;37.48;102879.34;5117648;28;20052;-73
2022/07/17 09:30:53;;;;;;;2.65;1.50;;;;;;;25.29;38.16;102884.16;5117741;28;20052;-74
2022/07/17 09:33:26;;;;;;;3.15;1.58;;;;;;;25.38;36.98;102881.94;5117376;28;20109;-73
2022/07/17 09:36:05;;;;;;;4.63;1.25;;;;;;;25.39;36.94;102875.25;5117543;28;20100;-74
2022/07/17 09:38:35;;;;;;;1.27;1.27;;;;;;;25.43;35.54;102881.22;5117586;28;20119;-73
2022/07/17 09:41:11;;;;;;;1.90;1.30;;;;;;;25.45;36.11;102886.91;5099275;28;20040;-74
2022/07/17 09:43:46;;;;;;;1.58;1.23;;;;;;;25.68;35.90;102881.50;5113975;28;20052;-73
2022/07/17 09:46:15;;;;;;;5.53;1.63;;;;;;;25.89;36.23;102880.03;5117246;28;20135;-73
2022/07/17 09:48:47;;;;;;;5.97;1.42;;;;;;;25.72;36.72;102876.56;5117291;28;20078;-75
2022/07/17 09:51:37;;;;;;;2.70;1.60;;;;;;;25.69;36.65;102878.28;5116986;28;20056;-72
2022/07/17 09:54:06;;;;;;;2.53;1.45;;;;;;;26.04;35.85;102880.53;5117216;28;20062;-71
2022/07/17 09:56:35;;;;;;;2.30;1.25;;;;;;;26.28;35.91;102871.81;5116613;28;20052;-72
2022/07/17 09:59:08;;;;;;;3.45;1.30;;;;;;;26.13;35.47;102874.81;5117187;28;20068;-73
2022/07/17 10:01:36;;;;;;;3.30;1.60;;;;;;;25.98;36.66;102874.34;5115740;27;20059;-74
2022/07/17 10:04:04;;;;;;;4.20;1.45;;;;;;;25.91;36.10;102878.31;5096652;28;20128;-73
2022/07/17 10:06:31;;;;;;;4.13;1.42;;;;;;;25.90;36.10;102873.34;5116674;28;20093;-72
2022/07/17 10:08:59;;;;;;;3.17;1.50;;;;;;;25.79;36.66;102873.34;5097183;28;20660;-72
2022/07/17 10:11:32;;;;;;;2.95;1.42;;;;;;;25.90;35.89;102867.91;5117430;28;20048;-71
2022/07/17 10:14:05;;;;;;;5.15;1.40;;;;;;;25.79;36.56;102870.63;5116553;28;20036;-74
2022/07/17 10:16:33;;;;;;;5.07;1.70;;;;;;;25.77;35.72;102878.53;5116837;28;20139;-79
2022/07/17 10:19:02;;;;;;;2.35;1.35;;;;;;;25.90;36.52;102865.16;5096980;28;20041;-78
2022/07/17 10:21:31;;;;;;;3.90;1.50;;;;;;;25.77;37.35;102873.84;5117088;28;20040;-73
2022/07/17 10:23:58;;;;;;;4.43;1.55;;;;;;;25.96;37.07;102871.38;5116276;28;20532;-72
2022/07/17 10:26:39;;;;;;;2.63;1.77;;;;;;;26.27;36.27;102877.78;5116867;28;20082;-74
2022/07/17 10:29:38;;;;;;;1.40;1.30;;;;;;;26.28;36.59;102876.53;5117087;28;20075;-77
2022/07/17 10:32:16;;;;;;;2.13;1.45;;;;;;;26.45;36.03;102874.53;5116609;28;20079;-73
2022/07/17 10:34:53;;;;;;;4.60;1.42;;;;;;;26.44;36.07;102876.50;5115596;28;20044;-75
2022/07/17 10:37:21;;;;;;;5.95;1.50;;;;;;;26.64;35.06;102874.72;5099283;28;20123;-78
2022/07/17 10:40:11;;;;;;;2.22;1.70;;;;;;;26.75;35.12;102878.16;5116290;28;20080;-76
2022/07/17 10:42:43;;;;;;;12.83;1.97;;;;;;;26.96;35.07;102877.84;5114446;28;20078;-75
2022/07/17 10:45:15;;;;;;;6.20;1.90;;;;;;;26.89;34.74;102879.84;5116460;28;20282;-76
2022/07/17 10:47:54;;;;;;;6.13;2.03;;;;;;;27.02;34.79;102876.59;5097123;28;20087;-76
2022/07/17 10:50:28;;;;;;;2.88;1.73;;;;;;;26.87;35.60;102876.84;5116257;28;20511;-75
2022/07/17 10:53:09;;;;;;;2.58;1.65;;;;;;;27.07;34.76;102881.28;5115970;28;20063;-76
2022/07/17 10:55:40;;;;;;;2.38;1.90;;;;;;;27.09;35.65;102883.50;5113998;28;20514;-76
2022/07/17 10:58:26;;;;;;;18.20;14.30;;;;;;;27.37;34.48;102889.56;5095859;28;20063;-76
2022/07/17 11:01:22;;;;;;;2.95;2.20;;;;;;;27.34;34.58;102885.09;5116374;28;20032;-73
2022/07/17 11:03:58;;;;;;;2.65;1.70;;;;;;;27.22;35.16;102883.66;5096670;28;20045;-75
2022/07/17 11:06:31;;;;;;;2.05;1.83;;;;;;;27.28;33.78;102883.63;5097905;28;20051;-75
2022/07/17 11:09:01;;;;;;;4.03;1.77;;;;;;;27.51;34.01;102887.72;5116262;28;20456;-75
2022/07/17 11:11:40;;;;;;;3.58;1.98;;;;;;;27.68;34.38;102874.69;5116477;27;20052;-76
2022/07/17 11:14:14;;;;;;;4.57;1.80;;;;;;;27.74;33.62;102869.16;5094797;28;20110;-77
2022/07/17 11:16:58;;;;;;;2.35;1.90;;;;;;;27.78;33.48;102864.16;5099204;28;20045;-76
2022/07/17 11:19:32;;;;;;;2.08;1.60;;;;;;;27.67;33.36;102864.25;5119798;28;20044;-75
2022/07/17 11:22:05;;;;;;;4.95;1.92;;;;;;;27.69;32.87;102862.50;5115192;28;20105;-75
2022/07/17 11:24:43;;;;;;;6.57;1.83;;;;;;;27.84;34.60;102868.34;5113839;28;20048;-76
2022/07/17 11:27:11;;;;;;;1.95;1.77;;;;;;;27.78;34.18;102855.97;5119077;28;20113;-77
2022/07/17 11:29:40;;;;;;;3.63;1.88;;;;;;;27.92;33.82;102854.09;5118285;28;20059;-74
2022/07/17 11:32:07;;;;;;;4.35;1.95;;;;;;;27.75;33.18;102859.72;5119002;28;20127;-75
2022/07/17 11:34:33;;;;;;;2.03;1.83;;;;;;;27.91;33.23;102858.84;5118642;28;20052;-74